createdAt,value
2022-11-12T00:00:39.362Z,79.50
2022-11-12T00:03:06.119Z,80.10
2022-11-12T00:05:32.830Z,80.80
2022-11-12T00:07:59.564Z,81.80
2022-11-12T00:10:26.097Z,82.80
2022-11-12T00:12:53.173Z,83.50
2022-11-12T00:15:19.749Z,83.40
2022-11-12T00:17:46.332Z,83.40
2022-11-12T00:20:12.919Z,83.40
2022-11-12T00:22:39.534Z,83.40
2022-11-12T00:25:06.336Z,83.40
2022-11-12T00:27:33.389Z,83.40
2022-11-12T00:29:59.918Z,82.70
2022-11-12T00:32:26.772Z,81.10
2022-11-12T00:34:53.851Z,81.90
2022-11-12T00:37:20.932Z,81.80
2022-11-12T00:39:47.457Z,81.70
2022-11-12T00:42:14.012Z,82.10
2022-11-12T00:44:40.596Z,81.10
2022-11-12T00:47:07.123Z,79.20
2022-11-12T00:49:33.639Z,79.60
2022-11-12T00:52:00.222Z,80.10
2022-11-12T00:54:27.012Z,79.30
2022-11-12T00:56:53.544Z,79.10
2022-11-12T00:59:20.063Z,78.40
2022-11-12T01:01:46.610Z,79.00
2022-11-12T01:04:13.209Z,79.90
2022-11-12T01:06:40.844Z,79.70
2022-11-12T01:09:08.256Z,79.10
2022-11-12T01:11:34.886Z,79.80
2022-11-12T01:14:02.642Z,79.70
2022-11-12T01:16:30.344Z,80.60
2022-11-12T01:18:58.302Z,80.80
2022-11-12T01:21:27.662Z,82.90
2022-11-12T01:23:54.302Z,82.90
2022-11-12T01:26:22.036Z,82.90
2022-11-12T01:28:48.832Z,82.90
2022-11-12T01:31:15.404Z,82.90
2022-11-12T01:33:42.524Z,83.70
2022-11-12T01:36:09.778Z,84.60
2022-11-12T01:38:37.456Z,84.60
2022-11-12T01:41:04.526Z,83.90
2022-11-12T01:43:31.051Z,83.70
2022-11-12T01:45:58.804Z,83.90
2022-11-12T01:48:28.064Z,84.00
2022-11-12T01:50:55.175Z,84.50
2022-11-12T01:53:22.585Z,84.20
2022-11-12T01:55:49.224Z,84.20
2022-11-12T01:58:16.898Z,83.70
2022-11-12T02:00:43.534Z,84.10
2022-11-12T02:03:15.331Z,85.50
2022-11-12T02:05:42.464Z,85.20
2022-11-12T02:08:11.002Z,85.00
2022-11-12T02:10:38.923Z,85.00
2022-11-12T02:13:24.766Z,85.00
2022-11-12T02:15:51.721Z,84.20
2022-11-12T02:18:18.513Z,83.20
2022-11-12T02:20:45.101Z,84.40
2022-11-12T02:23:11.801Z,85.10
2022-11-12T02:25:38.316Z,85.70
2022-11-12T02:28:06.444Z,85.40
2022-11-12T02:30:32.937Z,85.40
2022-11-12T02:32:59.689Z,85.10
2022-11-12T02:35:26.492Z,85.30
2022-11-12T02:37:53.030Z,85.50
2022-11-12T02:40:19.553Z,85.70
2022-11-12T02:42:46.056Z,85.50
2022-11-12T02:45:12.969Z,85.00
2022-11-12T02:47:39.636Z,85.30
2022-11-12T02:50:06.398Z,85.10
2022-11-12T02:52:32.997Z,85.20
2022-11-12T02:54:59.518Z,85.20
2022-11-12T02:57:26.200Z,84.50
2022-11-12T02:59:52.731Z,84.50
2022-11-12T03:02:19.268Z,84.80
2022-11-12T03:04:49.396Z,84.00
2022-11-12T03:07:16.384Z,84.80
2022-11-12T03:09:43.086Z,85.20
2022-11-12T03:12:09.688Z,85.30
2022-11-12T03:14:36.451Z,84.30
2022-11-12T03:17:03.269Z,84.60
2022-11-12T03:19:29.805Z,84.50
2022-11-12T03:21:56.360Z,83.50
2022-11-12T03:24:22.913Z,83.10
2022-11-12T03:26:49.469Z,83.00
2022-11-12T03:29:16.212Z,83.90
2022-11-12T03:31:42.706Z,84.00
2022-11-12T03:34:10.409Z,83.60
2022-11-12T03:36:36.913Z,83.00
2022-11-12T03:39:03.588Z,83.00
2022-11-12T03:41:30.122Z,83.00
2022-11-12T03:43:56.629Z,83.00
2022-11-12T03:46:23.149Z,81.90
2022-11-12T03:48:49.669Z,82.80
2022-11-12T03:51:17.271Z,82.90
2022-11-12T03:53:43.788Z,82.90
2022-11-12T03:56:10.292Z,83.00
2022-11-12T03:58:36.831Z,83.60
2022-11-12T04:01:03.538Z,82.90
2022-11-12T04:03:30.107Z,83.50
2022-11-12T04:06:15.295Z,82.90
2022-11-12T04:08:41.977Z,83.70
2022-11-12T04:11:16.217Z,85.10
2022-11-12T04:13:43.384Z,86.30
2022-11-12T04:16:29.990Z,87.90
2022-11-12T04:19:16.516Z,87.70
2022-11-12T04:21:56.590Z,87.90
2022-11-12T04:24:46.666Z,87.10
2022-11-12T04:27:15.061Z,86.10
2022-11-12T04:33:09.652Z,82.90
2022-11-12T04:35:36.194Z,80.90
2022-11-12T04:38:02.868Z,80.20
2022-11-12T04:40:48.231Z,78.70
2022-11-12T04:43:34.908Z,78.60
2022-11-12T04:46:02.358Z,78.60
2022-11-12T04:48:29.544Z,78.50
2022-11-12T04:51:00.439Z,78.00
2022-11-12T04:53:27.529Z,77.10
2022-11-12T04:55:54.962Z,75.50
2022-11-12T04:58:21.650Z,75.50
2022-11-12T05:00:49.152Z,74.30
2022-11-12T05:03:16.377Z,74.30
2022-11-12T05:05:42.929Z,74.20
2022-11-12T05:08:09.565Z,74.20
2022-11-12T05:10:36.165Z,74.10
2022-11-12T05:13:02.806Z,74.10
2022-11-12T05:15:29.392Z,74.20
2022-11-12T05:17:56.039Z,74.40
2022-11-12T05:20:22.628Z,74.00
2022-11-12T05:23:05.117Z,76.20
2022-11-12T05:25:33.361Z,78.50
2022-11-12T05:27:59.912Z,79.40
2022-11-12T05:30:26.427Z,78.70
2022-11-12T05:32:53.059Z,77.50
2022-11-12T05:35:19.578Z,76.60
2022-11-12T05:37:46.098Z,75.40
2022-11-12T05:40:12.872Z,74.40
2022-11-12T05:42:39.393Z,73.90
2022-11-12T05:45:06.354Z,73.80
2022-11-12T05:47:32.909Z,74.00
2022-11-12T05:49:59.397Z,73.80
2022-11-12T05:52:26.085Z,73.80
2022-11-12T05:54:52.698Z,74.70
2022-11-12T05:57:19.253Z,74.90
2022-11-12T05:59:45.759Z,75.50
2022-11-12T06:02:12.327Z,75.60
2022-11-12T06:04:38.895Z,74.10
2022-11-12T06:07:05.491Z,73.70
2022-11-12T06:09:32.135Z,73.70
2022-11-12T06:11:58.764Z,73.60
2022-11-12T06:14:25.318Z,74.10
2022-11-12T06:16:51.817Z,73.60
2022-11-12T06:19:18.404Z,74.90
2022-11-12T06:21:44.912Z,74.80
2022-11-12T06:24:11.683Z,73.60
2022-11-12T06:26:38.310Z,74.90
2022-11-12T06:29:04.873Z,75.90
2022-11-12T06:31:31.368Z,77.30
2022-11-12T06:33:57.858Z,77.60
2022-11-12T06:36:24.506Z,77.60
2022-11-12T06:38:51.060Z,76.10
2022-11-12T06:41:17.874Z,76.30
2022-11-12T06:43:44.562Z,75.70
2022-11-12T06:46:12.260Z,76.60
2022-11-12T06:48:39.085Z,76.80
2022-11-12T06:51:09.914Z,77.30
2022-11-12T06:53:36.458Z,77.60
2022-11-12T06:56:04.336Z,78.20
2022-11-12T06:58:30.957Z,77.90
2022-11-12T07:00:57.717Z,77.70
2022-11-12T07:03:24.275Z,78.00
2022-11-12T07:05:50.839Z,78.70
2022-11-12T07:08:17.345Z,78.00
2022-11-12T07:10:43.869Z,78.40
2022-11-12T07:13:10.415Z,78.80
2022-11-12T07:15:36.930Z,78.60
2022-11-12T07:18:03.476Z,78.10
2022-11-12T07:20:30.078Z,78.30
2022-11-12T07:22:59.785Z,77.20
2022-11-12T07:25:26.299Z,75.50
2022-11-12T07:27:53.187Z,75.10
2022-11-12T07:30:19.725Z,74.70
2022-11-12T07:32:51.676Z,74.70
2022-11-12T07:35:18.647Z,73.70
2022-11-12T07:37:45.231Z,70.80
2022-11-12T07:40:11.856Z,68.00
2022-11-12T07:42:38.415Z,67.00
2022-11-12T07:45:05.355Z,64.70
2022-11-12T07:47:31.893Z,61.70
2022-11-12T07:49:58.425Z,58.60
2022-11-12T07:52:25.114Z,55.50
2022-11-12T07:54:51.665Z,50.50
2022-11-12T07:57:18.298Z,45.10
2022-11-12T07:59:46.391Z,43.40
2022-11-12T08:02:13.300Z,38.60
2022-11-12T08:04:39.869Z,36.30
2022-11-12T08:07:06.700Z,32.90
2022-11-12T08:09:33.372Z,30.20
2022-11-12T08:11:59.963Z,28.80
2022-11-12T08:14:26.623Z,26.60
2022-11-12T08:16:53.203Z,23.90
2022-11-12T08:19:19.761Z,21.30
2022-11-12T08:21:46.316Z,20.10
2022-11-12T08:24:12.813Z,16.10
2022-11-12T08:26:39.331Z,15.30
2022-11-12T08:29:08.660Z,14.80
2022-11-12T08:31:35.498Z,12.90
2022-11-12T08:34:11.972Z,13.80
2022-11-12T08:36:39.215Z,11.30
2022-11-12T08:39:06.752Z,11.10
2022-11-12T08:41:33.775Z,10.00
2022-11-12T08:44:04.247Z,8.50
2022-11-12T08:46:34.764Z,5.80
2022-11-12T08:49:01.311Z,1.00
2022-11-12T08:51:27.847Z,1.00
2022-11-12T08:53:54.510Z,1.00
2022-11-12T08:56:21.413Z,1.00
2022-11-12T08:58:47.961Z,1.00
2022-11-12T09:01:14.563Z,1.00
2022-11-12T09:03:41.188Z,1.00
2022-11-12T09:06:07.876Z,1.00
2022-11-12T09:08:35.168Z,1.00
2022-11-12T09:11:01.795Z,1.00
2022-11-12T09:13:28.406Z,1.00
2022-11-12T09:15:59.244Z,1.00
2022-11-12T09:18:26.205Z,1.00
2022-11-12T09:20:53.011Z,1.00
2022-11-12T09:23:19.662Z,1.00
2022-11-12T09:25:46.221Z,1.00
2022-11-12T09:28:17.021Z,1.00
2022-11-12T09:30:46.321Z,1.00
2022-11-12T09:33:16.942Z,1.00
2022-11-12T09:35:44.002Z,1.00
2022-11-12T09:38:10.567Z,1.00
2022-11-12T09:40:40.682Z,1.00
2022-11-12T09:43:28.753Z,1.00
2022-11-12T09:46:13.970Z,1.00
2022-11-12T09:48:46.064Z,1.00
2022-11-12T09:51:18.857Z,1.00
2022-11-12T09:53:58.285Z,1.00
2022-11-12T09:56:25.535Z,1.00
2022-11-12T09:58:52.549Z,1.00
2022-11-12T10:01:21.892Z,1.00
2022-11-12T10:03:55.447Z,1.00
2022-11-12T10:06:23.912Z,1.00
2022-11-12T10:08:58.610Z,1.00
2022-11-12T10:12:04.460Z,1.00
2022-11-12T10:14:50.215Z,1.00
2022-11-12T10:17:16.780Z,1.00
2022-11-12T10:19:53.331Z,1.00
2022-11-12T10:22:35.952Z,1.00
2022-11-12T10:25:16.333Z,1.00
2022-11-12T10:27:43.237Z,1.00
2022-11-12T10:30:14.704Z,1.00
2022-11-12T10:32:42.799Z,1.00
2022-11-12T10:35:10.626Z,1.00
2022-11-12T10:37:42.465Z,1.00
2022-11-12T10:40:21.762Z,1.00
2022-11-12T10:42:58.736Z,1.00
2022-11-12T10:45:25.338Z,1.00
2022-11-12T10:47:51.894Z,1.00
2022-11-12T10:50:18.789Z,1.00
2022-11-12T10:52:55.798Z,1.00
2022-11-12T10:55:24.024Z,1.00
2022-11-12T10:58:09.369Z,1.00
2022-11-12T11:00:36.469Z,1.00
2022-11-12T11:03:17.113Z,1.00
2022-11-12T11:05:58.280Z,1.00
2022-11-12T11:08:37.286Z,1.00
2022-11-12T11:11:16.156Z,1.00
2022-11-12T11:13:43.523Z,1.00
2022-11-12T11:16:17.773Z,1.00
2022-11-12T11:18:57.827Z,1.00
2022-11-12T11:21:43.142Z,1.00
2022-11-12T11:24:10.773Z,1.00
2022-11-12T11:26:42.452Z,1.00
2022-11-12T11:29:19.805Z,1.00
2022-11-12T11:31:54.044Z,1.00
2022-11-12T11:34:25.811Z,1.00
2022-11-12T11:37:00.680Z,1.00
2022-11-12T11:39:35.614Z,1.00
2022-11-12T11:42:20.695Z,1.00
2022-11-12T11:44:47.206Z,1.00
2022-11-12T11:47:50.429Z,1.00
2022-11-12T11:50:29.568Z,1.00
2022-11-12T11:53:15.198Z,1.00
2022-11-12T11:56:03.064Z,1.00
2022-11-12T11:58:29.709Z,1.00
2022-11-12T12:01:01.353Z,1.00
2022-11-12T12:03:38.200Z,1.00
2022-11-12T12:06:18.576Z,1.00
2022-11-12T12:08:51.451Z,1.00
2022-11-12T12:11:22.546Z,1.00
2022-11-12T12:14:04.365Z,1.00
2022-11-12T12:16:37.046Z,1.00
2022-11-12T12:19:03.610Z,1.00
2022-11-12T12:21:32.243Z,1.00
2022-11-12T12:24:07.154Z,1.00
2022-11-12T12:26:40.005Z,1.00
2022-11-12T12:29:25.366Z,1.00
2022-11-12T12:31:53.425Z,1.00
2022-11-12T12:34:29.023Z,1.00
2022-11-12T12:37:01.684Z,1.00
2022-11-12T12:39:37.728Z,1.00
2022-11-12T12:42:06.260Z,1.00
2022-11-12T12:44:57.330Z,1.00
2022-11-12T12:47:23.916Z,1.00
2022-11-12T12:49:50.679Z,1.00
2022-11-12T12:52:17.229Z,1.00
2022-11-12T12:54:52.780Z,1.00
2022-11-12T12:57:27.421Z,1.00
2022-11-12T13:00:15.505Z,1.00
2022-11-12T13:02:42.384Z,1.00
2022-11-12T13:05:23.278Z,1.00
2022-11-12T13:07:50.545Z,1.00
2022-11-12T13:10:35.884Z,1.00
2022-11-12T13:13:05.540Z,1.00
2022-11-12T13:15:41.385Z,1.00
2022-11-12T13:18:12.839Z,1.00
2022-11-12T13:20:42.720Z,1.00
2022-11-12T13:23:10.450Z,1.00
2022-11-12T13:25:37.286Z,1.00
2022-11-12T13:28:04.924Z,1.00
2022-11-12T13:30:31.746Z,1.00
2022-11-12T13:32:58.948Z,1.00
2022-11-12T13:35:28.298Z,1.00
2022-11-12T13:38:03.901Z,1.00
2022-11-12T13:40:30.575Z,1.00
2022-11-12T13:42:58.911Z,1.20
2022-11-12T13:45:27.036Z,1.00
2022-11-12T13:47:53.544Z,1.30
2022-11-12T13:50:22.113Z,2.60
2022-11-12T13:52:49.202Z,3.40
2022-11-12T13:55:16.877Z,4.30
2022-11-12T13:57:50.054Z,4.40
2022-11-12T14:00:16.597Z,4.30
2022-11-12T14:02:47.887Z,5.10
2022-11-12T14:05:15.835Z,5.60
2022-11-12T14:08:01.289Z,6.90
2022-11-12T14:10:46.695Z,9.00
2022-11-12T14:13:32.207Z,9.00
2022-11-12T14:16:14.067Z,9.00
2022-11-12T14:18:59.579Z,9.10
2022-11-12T14:21:26.174Z,8.80
2022-11-12T14:23:52.836Z,8.80
2022-11-12T14:26:34.673Z,8.90
2022-11-12T14:29:01.363Z,10.70
2022-11-12T14:31:27.938Z,13.40
2022-11-12T14:33:54.499Z,13.40
2022-11-12T14:36:21.511Z,14.50
2022-11-12T14:38:50.399Z,16.70
2022-11-12T14:41:24.690Z,17.90
2022-11-12T14:44:10.982Z,17.90
2022-11-12T14:46:43.392Z,21.10
2022-11-12T14:49:19.169Z,22.30
2022-11-12T14:51:50.520Z,22.20
2022-11-12T14:54:25.687Z,22.10
2022-11-12T14:56:52.507Z,23.90
2022-11-12T14:59:19.181Z,24.10
2022-11-12T15:04:52.191Z,25.60
2022-11-12T15:07:23.407Z,26.30
2022-11-12T15:09:50.058Z,27.20
2022-11-12T15:12:34.883Z,28.40
2022-11-12T15:15:18.016Z,30.40
2022-11-12T15:17:44.585Z,32.50
2022-11-12T15:20:13.503Z,32.80
2022-11-12T15:22:40.117Z,33.20
2022-11-12T15:25:16.013Z,33.70
2022-11-12T15:27:43.061Z,35.40
2022-11-12T15:30:18.426Z,36.80
2022-11-12T15:32:45.278Z,38.10
2022-11-12T15:35:21.522Z,39.50
2022-11-12T15:37:48.164Z,40.70
2022-11-12T15:40:19.012Z,40.60
2022-11-12T15:42:45.757Z,40.60
2022-11-12T15:45:16.884Z,42.50
2022-11-12T15:47:43.604Z,43.10
2022-11-12T15:50:13.010Z,43.30
2022-11-12T15:52:39.793Z,44.00
2022-11-12T15:55:06.553Z,44.70
2022-11-12T15:57:34.318Z,46.30
2022-11-12T16:00:07.830Z,48.40
2022-11-12T16:02:35.269Z,50.40
2022-11-12T16:05:01.975Z,50.40
2022-11-12T16:07:28.600Z,50.30
2022-11-12T16:09:55.194Z,50.70
2022-11-12T16:12:21.775Z,53.10
2022-11-12T16:14:48.312Z,53.70
2022-11-12T16:17:15.913Z,55.10
2022-11-12T16:19:42.476Z,54.30
2022-11-12T16:22:12.689Z,55.00
2022-11-12T16:24:39.976Z,55.70
2022-11-12T16:27:07.658Z,56.40
2022-11-12T16:29:35.018Z,58.00
2022-11-12T16:32:02.584Z,58.80
2022-11-12T16:34:29.420Z,60.90
2022-11-12T16:36:56.581Z,60.80
2022-11-12T16:39:23.139Z,61.70
2022-11-12T16:41:49.684Z,60.70
2022-11-12T16:44:16.250Z,60.60
2022-11-12T16:46:43.813Z,62.00
2022-11-12T16:49:13.948Z,63.20
2022-11-12T16:51:40.900Z,63.30
2022-11-12T16:54:07.864Z,63.70
2022-11-12T16:56:34.546Z,63.00
2022-11-12T16:59:01.234Z,63.80
2022-11-12T17:01:29.123Z,64.00
2022-11-12T17:03:56.266Z,63.90
2022-11-12T17:06:23.988Z,64.40
2022-11-12T17:08:54.317Z,63.90
2022-11-12T17:11:20.875Z,64.80
2022-11-12T17:13:47.384Z,65.50
2022-11-12T17:16:14.236Z,65.30
2022-11-12T17:18:40.849Z,65.50
2022-11-12T17:21:08.426Z,64.90
2022-11-12T17:23:35.057Z,65.70
2022-11-12T17:26:02.656Z,66.30
2022-11-12T17:28:30.174Z,66.20
2022-11-12T17:31:07.851Z,67.10
2022-11-12T17:33:37.501Z,67.50
2022-11-12T17:36:04.566Z,68.40
2022-11-12T17:38:31.201Z,68.40
2022-11-12T17:40:58.185Z,68.00
2022-11-12T17:43:25.317Z,68.30
2022-11-12T17:45:52.646Z,68.30
2022-11-12T17:48:19.393Z,68.20
2022-11-12T17:50:46.370Z,68.90
2022-11-12T17:53:13.454Z,69.20
2022-11-12T17:55:39.968Z,69.40
2022-11-12T17:58:06.754Z,68.80
2022-11-12T18:00:33.984Z,69.90
2022-11-12T18:03:00.528Z,72.10
2022-11-12T18:05:27.145Z,76.40
2022-11-12T18:07:53.694Z,76.50
2022-11-12T18:10:20.211Z,76.50
2022-11-12T18:12:46.739Z,76.50
2022-11-12T18:15:13.281Z,75.90
2022-11-12T18:17:39.894Z,73.30
2022-11-12T18:20:06.750Z,71.00
2022-11-12T18:22:33.533Z,70.90
2022-11-12T18:25:00.103Z,70.10
2022-11-12T18:27:26.663Z,72.10
2022-11-12T18:29:53.245Z,73.70
2022-11-12T18:32:19.875Z,74.10
2022-11-12T18:34:46.444Z,74.00
2022-11-12T18:37:13.290Z,72.80
2022-11-12T18:39:39.988Z,71.90
2022-11-12T18:42:06.519Z,71.90
2022-11-12T18:44:33.063Z,72.10
2022-11-12T18:46:59.578Z,72.00
2022-11-12T18:49:26.125Z,72.70
2022-11-12T18:51:52.685Z,73.20
2022-11-12T18:54:19.229Z,72.80
2022-11-12T18:56:45.869Z,72.50
2022-11-12T18:59:12.500Z,72.10
2022-11-12T19:01:39.089Z,72.20
2022-11-12T19:04:06.301Z,73.60
2022-11-12T19:06:33.057Z,75.80
2022-11-12T19:09:00.384Z,78.40
2022-11-12T19:11:26.884Z,79.80
2022-11-12T19:13:54.406Z,80.50
2022-11-12T19:16:22.643Z,79.90
2022-11-12T19:18:49.820Z,79.80
2022-11-12T19:21:18.446Z,78.60
2022-11-12T19:23:50.025Z,78.30
2022-11-12T19:26:19.570Z,78.30
2022-11-12T19:28:46.252Z,77.20
2022-11-12T19:31:14.475Z,75.80
2022-11-12T19:33:41.061Z,75.70
2022-11-12T19:36:08.831Z,75.80
2022-11-12T19:38:35.388Z,75.50
2022-11-12T19:41:05.006Z,75.50
2022-11-12T19:43:31.743Z,75.50
2022-11-12T19:45:58.277Z,75.50
2022-11-12T19:48:25.096Z,74.80
2022-11-12T19:50:52.240Z,74.10
2022-11-12T19:53:19.009Z,74.00
2022-11-12T19:55:45.551Z,73.20
2022-11-12T19:58:12.074Z,73.40
2022-11-12T20:00:38.602Z,73.60
2022-11-12T20:03:05.151Z,73.00
2022-11-12T20:05:31.770Z,73.30
2022-11-12T20:07:58.314Z,73.30
2022-11-12T20:10:24.936Z,74.50
2022-11-12T20:12:51.520Z,75.20
2022-11-12T20:15:18.098Z,75.20
2022-11-12T20:17:44.615Z,75.10
2022-11-12T20:20:11.339Z,75.70
2022-11-12T20:22:37.939Z,76.10
2022-11-12T20:25:04.623Z,76.80
2022-11-12T20:27:31.137Z,77.80
2022-11-12T20:29:57.777Z,78.00
2022-11-12T20:32:24.351Z,80.00
2022-11-12T20:34:50.903Z,81.00
2022-11-12T20:37:18.482Z,81.40
2022-11-12T20:39:45.682Z,81.30
2022-11-12T20:42:12.235Z,82.40
2022-11-12T20:44:38.822Z,83.40
2022-11-12T20:47:05.345Z,83.40
2022-11-12T20:49:31.848Z,83.50
2022-11-12T20:51:58.419Z,85.30
2022-11-12T20:54:25.062Z,87.40
2022-11-12T20:56:51.639Z,88.10
2022-11-12T20:59:18.178Z,89.60
2022-11-12T21:01:44.913Z,90.60
2022-11-12T21:04:12.324Z,90.60
2022-11-12T21:06:39.030Z,91.30
2022-11-12T21:09:05.582Z,91.50
2022-11-12T21:11:32.103Z,91.60
2022-11-12T21:13:59.862Z,91.80
2022-11-12T21:16:26.521Z,92.20
2022-11-12T21:18:53.150Z,92.00
2022-11-12T21:21:21.167Z,92.00
2022-11-12T21:23:50.184Z,92.40
2022-11-12T21:26:17.824Z,92.30
2022-11-12T21:28:45.192Z,92.40
2022-11-12T21:31:13.169Z,92.00
2022-11-12T21:33:39.877Z,92.00
2022-11-12T21:36:09.462Z,92.20
2022-11-12T21:38:39.834Z,92.20
2022-11-12T21:41:06.404Z,91.90
2022-11-12T21:43:37.222Z,92.00
2022-11-12T21:46:06.905Z,91.80
2022-11-12T21:48:33.473Z,91.50
2022-11-12T21:51:04.564Z,91.30
2022-11-12T21:53:31.105Z,91.30
2022-11-12T21:56:01.500Z,91.60
2022-11-12T21:58:29.190Z,91.60
2022-11-12T22:00:55.991Z,91.90
2022-11-12T22:03:22.575Z,92.30
2022-11-12T22:05:49.136Z,92.20
2022-11-12T22:08:15.705Z,92.10
2022-11-12T22:10:42.223Z,92.00
2022-11-12T22:15:55.347Z,91.20
2022-11-12T22:18:21.900Z,90.50
2022-11-12T22:21:05.396Z,90.50
2022-11-12T22:23:38.318Z,90.50
2022-11-12T22:26:06.092Z,90.40
2022-11-12T22:28:34.297Z,90.80
2022-11-12T22:31:08.335Z,90.50
2022-11-12T22:33:35.272Z,90.50
2022-11-12T22:36:02.694Z,90.50
2022-11-12T22:38:32.990Z,90.40
2022-11-12T22:41:06.714Z,90.50
2022-11-12T22:43:33.297Z,90.40
2022-11-12T22:46:07.088Z,90.30
2022-11-12T22:48:33.966Z,89.50
2022-11-12T22:51:05.067Z,89.80
2022-11-12T22:53:31.834Z,87.10
2022-11-12T22:56:02.231Z,87.10
2022-11-12T22:58:29.573Z,87.00
2022-11-12T23:00:56.358Z,87.00
2022-11-12T23:03:23.409Z,85.20
2022-11-12T23:05:55.868Z,85.10
2022-11-12T23:08:22.362Z,84.90
2022-11-12T23:10:48.851Z,84.10
2022-11-12T23:13:15.354Z,85.10
2022-11-12T23:15:42.594Z,84.50
2022-11-12T23:18:09.125Z,86.00
2022-11-12T23:20:35.657Z,86.60
2022-11-12T23:23:02.272Z,87.40
2022-11-12T23:25:29.266Z,87.90
2022-11-12T23:27:55.762Z,87.70
2022-11-12T23:30:22.293Z,88.00
2022-11-12T23:32:48.790Z,89.10
2022-11-12T23:35:15.333Z,88.60
2022-11-12T23:37:41.842Z,88.50
2022-11-12T23:40:09.263Z,89.00
2022-11-12T23:42:35.862Z,87.80
2022-11-12T23:45:02.691Z,87.00
2022-11-12T23:47:29.276Z,86.20
2022-11-12T23:49:55.794Z,85.00
2022-11-12T23:52:22.301Z,85.00
2022-11-12T23:54:48.955Z,85.20
2022-11-12T23:57:15.588Z,86.40
2022-11-12T23:59:42.184Z,86.50
